Terminal Aerodrome Forecast
Issued by NWS Jackson, MS

Home | Current Version | Previous Version | Text Only | Print | Product List | Glossary On
Versions: 1 2 3 4 5 6 7 8 9 10 11 12 13 14 15 16 17 18 19 20 21 22 23 24 25
839
FTUS44 KJAN 300116 AAA
TAFGWO
TAF AMD
KGWO 300116Z 3001/3024 VRB04KT P6SM SCT040
     FM300235 34015KT 4SM RA VCTS SCT025 OVC040CB
     FM300310 VRB04KT P6SM FEW050 SCT200
     FM301500 23007KT P6SM SCT040=

USA.gov is the U.S. government's official web portal to all federal, state and local government web resources and services.